Time;durP1;ratioP1;P1;durP2;ratioP2;P2;SDS_P1;SDS_P2;PMS_P1;PMS_P2;Temp;Humidity;BMP_temperature;BMP_pressure;BME280_temperature;BME280_humidity;BME280_pressure;Samples;Min_cycle;Max_cycle;Signal;HPM_P1;HPM_P2
2023/01/05 00:01:06;;;;;;;0.70;0.70;;;11.40;84.80;;;;;;4973759;28;20044;-61
2023/01/05 00:03:33;;;;;;;0.63;0.60;;;11.40;84.90;;;;;;4983551;28;20433;-61
2023/01/05 00:06:04;;;;;;;0.73;0.73;;;11.40;84.60;;;;;;4984279;28;20034;-58
2023/01/05 00:08:30;;;;;;;0.52;0.52;;;11.50;84.90;;;;;;4985443;28;20092;-60
2023/01/05 00:24:39;;;;;;;0.73;0.50;;;11.50;84.90;;;;;;4985141;28;20085;-61
2023/01/05 00:27:05;;;;;;;0.70;0.43;;;11.50;84.90;;;;;;4985866;28;20026;-59
2023/01/05 00:29:30;;;;;;;0.50;0.50;;;11.50;85.00;;;;;;4986009;28;20572;-58
2023/01/05 00:31:56;;;;;;;1.10;0.50;;;11.50;85.10;;;;;;4975740;28;20556;-59
2023/01/05 00:34:21;;;;;;;0.30;0.28;;;11.50;85.10;;;;;;4975092;28;20189;-60
2023/01/05 00:36:47;;;;;;;0.38;0.38;;;11.50;85.00;;;;;;4972107;28;20398;-62
2023/01/05 00:39:12;;;;;;;0.40;0.40;;;11.60;85.10;;;;;;4972442;28;20038;-61
2023/01/05 00:41:38;;;;;;;0.82;0.47;;;11.50;85.00;;;;;;4970880;28;20034;-61
2023/01/05 00:44:03;;;;;;;0.40;0.40;;;11.60;85.00;;;;;;4955452;28;20080;-61
2023/01/05 00:46:29;;;;;;;0.40;0.40;;;11.60;85.20;;;;;;4977323;28;20058;-61
2023/01/05 00:48:54;;;;;;;0.40;0.40;;;11.60;85.10;;;;;;4977296;28;20051;-60
2023/01/05 00:51:20;;;;;;;0.50;0.30;;;11.60;85.10;;;;;;4961186;28;20104;-61
2023/01/05 00:53:47;;;;;;;1.15;0.55;;;11.60;85.10;;;;;;4977073;28;20141;-60
2023/01/05 00:56:13;;;;;;;0.50;0.38;;;11.60;85.90;;;;;;4969889;28;20038;-61
2023/01/05 00:58:39;;;;;;;0.50;0.40;;;11.60;85.00;;;;;;4971596;28;20372;-61
2023/01/05 01:01:10;;;;;;;0.50;0.50;;;11.60;85.00;;;;;;4976151;28;20034;-61
2023/01/05 01:03:35;;;;;;;0.40;0.40;;;11.70;85.20;;;;;;4979249;28;20114;-61
2023/01/05 01:06:01;;;;;;;1.50;0.50;;;11.70;85.10;;;;;;4983332;28;20145;-60
2023/01/05 01:08:26;;;;;;;0.40;0.40;;;11.70;85.20;;;;;;4981666;28;20035;-60
2023/01/05 01:10:52;;;;;;;0.70;0.30;;;11.70;85.20;;;;;;4978583;28;20086;-62
2023/01/05 01:13:17;;;;;;;0.20;0.20;;;11.70;85.30;;;;;;4981995;28;20042;-61
2023/01/05 01:15:43;;;;;;;0.20;0.20;;;11.70;85.30;;;;;;4977319;28;20060;-60
2023/01/05 01:18:09;;;;;;;0.30;0.30;;;11.70;85.40;;;;;;4983802;28;20418;-60
2023/01/05 01:20:36;;;;;;;0.32;0.22;;;11.70;85.50;;;;;;4980266;28;20030;-60
2023/01/05 01:23:03;;;;;;;0.30;0.30;;;11.70;85.50;;;;;;4985661;28;20088;-60
2023/01/05 01:25:29;;;;;;;0.95;0.22;;;11.70;85.50;;;;;;4985703;28;20054;-61
2023/01/05 01:27:54;;;;;;;0.35;0.30;;;11.70;85.50;;;;;;4984996;28;20069;-59
2023/01/05 01:30:20;;;;;;;0.50;0.40;;;11.80;85.60;;;;;;4982090;28;20088;-60
2023/01/05 01:32:45;;;;;;;0.20;0.20;;;11.80;85.70;;;;;;4980117;28;20043;-60
2023/01/05 01:35:11;;;;;;;0.30;0.30;;;11.80;85.70;;;;;;4981833;28;20172;-60
2023/01/05 01:37:37;;;;;;;0.40;0.35;;;11.80;85.60;;;;;;4983664;28;20042;-59
2023/01/05 01:40:03;;;;;;;0.20;0.20;;;11.80;85.70;;;;;;4985694;28;20371;-61
2023/01/05 01:42:28;;;;;;;0.13;0.13;;;11.80;85.70;;;;;;4985025;28;20035;-60
2023/01/05 01:44:56;;;;;;;0.75;0.20;;;11.80;85.60;;;;;;4984467;28;20790;-60
2023/01/05 01:47:22;;;;;;;1.65;0.30;;;11.80;85.70;;;;;;4982681;28;20105;-59
2023/01/05 01:49:49;;;;;;;0.20;0.20;;;11.80;85.70;;;;;;4982071;28;20466;-60
2023/01/05 01:52:15;;;;;;;0.28;0.20;;;11.80;85.70;;;;;;4984775;28;20054;-60
2023/01/05 01:54:41;;;;;;;0.20;0.20;;;11.80;85.70;;;;;;4982198;28;20042;-61
2023/01/05 01:57:10;;;;;;;0.22;0.20;;;11.90;85.90;;;;;;4985652;28;20520;-60
2023/01/05 01:59:36;;;;;;;0.38;0.20;;;11.90;86.00;;;;;;4983944;28;20039;-60
2023/01/05 02:02:02;;;;;;;0.60;0.20;;;11.90;86.00;;;;;;4981480;28;20030;-60
2023/01/05 02:04:30;;;;;;;0.13;0.13;;;11.80;86.00;;;;;;4984564;28;20023;-59
2023/01/05 02:06:56;;;;;;;0.10;0.10;;;11.80;86.10;;;;;;4983143;28;20117;-61
2023/01/05 02:09:22;;;;;;;0.30;0.10;;;11.80;86.00;;;;;;4986337;28;20144;-62
2023/01/05 02:12:11;;;;;;;0.60;0.30;;;11.80;86.00;;;;;;4981291;28;20030;-60
2023/01/05 02:14:52;;;;;;;0.20;0.20;;;11.80;86.20;;;;;;4960454;28;20395;-62
2023/01/05 02:17:53;;;;;;;0.90;0.40;;;11.80;86.30;;;;;;4983201;28;20069;-62
2023/01/05 02:20:45;;;;;;;0.68;0.20;;;11.80;86.60;;;;;;4919832;28;20034;-61
2023/01/05 02:23:42;;;;;;;0.20;0.20;;;11.80;86.40;;;;;;4981584;28;20503;-62
2023/01/05 02:26:26;;;;;;;0.20;0.20;;;11.80;86.50;;;;;;4959579;28;20062;-62
2023/01/05 02:29:20;;;;;;;0.20;0.20;;;11.80;86.30;;;;;;4981624;28;20111;-60
2023/01/05 02:31:56;;;;;;;0.20;0.20;;;11.80;87.10;;;;;;4981748;28;20069;-62
2023/01/05 02:34:46;;;;;;;0.20;0.17;;;11.80;86.30;;;;;;4981364;28;20070;-62
2023/01/05 02:37:22;;;;;;;0.50;0.20;;;11.80;86.30;;;;;;4984292;28;20030;-62
2023/01/05 02:40:07;;;;;;;0.10;0.10;;;11.70;86.00;;;;;;4980934;28;20395;-57
2023/01/05 02:42:35;;;;;;;0.22;0.20;;;11.80;86.30;;;;;;4983468;28;20058;-59
2023/01/05 02:45:05;;;;;;;0.10;0.10;;;11.80;86.10;;;;;;4981366;28;20043;-61
2023/01/05 02:47:37;;;;;;;0.10;0.10;;;11.80;86.10;;;;;;4981422;28;20034;-60
2023/01/05 02:50:15;;;;;;;0.30;0.10;;;11.70;86.10;;;;;;4981459;28;20030;-59
2023/01/05 02:52:46;;;;;;;0.03;0.03;;;11.70;86.20;;;;;;4978899;28;20101;-59
2023/01/05 02:55:16;;;;;;;0.50;0.20;;;11.70;86.20;;;;;;4981952;28;20092;-59
2023/01/05 02:57:50;;;;;;;0.47;0.15;;;11.70;86.20;;;;;;4983944;28;20077;-61
2023/01/05 03:00:39;;;;;;;0.20;0.10;;;11.70;86.10;;;;;;4976268;28;20042;-61
2023/01/05 03:03:23;;;;;;;0.10;0.10;;;11.70;86.20;;;;;;4982092;28;20062;-60
2023/01/05 03:05:55;;;;;;;0.38;0.20;;;11.70;86.20;;;;;;4982312;28;20034;-61
2023/01/05 03:08:23;;;;;;;0.20;0.20;;;11.70;86.00;;;;;;4985275;28;20050;-61
2023/01/05 03:14:11;;;;;;;0.30;0.10;;;11.70;86.20;;;;;;4980580;28;20050;-61
2023/01/05 03:16:38;;;;;;;0.20;0.20;;;11.70;86.20;;;;;;4984144;28;20050;-61
2023/01/05 03:35:56;;;;;;;0.43;0.20;;;11.70;86.60;;;;;;4980764;28;20483;-59
2023/01/05 03:38:41;;;;;;;0.20;0.20;;;11.60;86.40;;;;;;4981516;28;20140;-60
2023/01/05 03:41:11;;;;;;;0.10;0.10;;;11.70;86.60;;;;;;4981615;28;20105;-60
2023/01/05 03:43:37;;;;;;;0.25;0.20;;;11.70;86.40;;;;;;4981972;28;20027;-61
2023/01/05 03:46:14;;;;;;;0.10;0.10;;;11.70;86.50;;;;;;4980243;28;20042;-61
2023/01/05 03:48:40;;;;;;;0.50;0.20;;;11.70;86.40;;;;;;4982744;28;20042;-61
2023/01/05 03:51:06;;;;;;;0.17;0.10;;;11.70;86.40;;;;;;4980281;28;20050;-60
2023/01/05 03:53:31;;;;;;;0.20;0.20;;;11.70;86.30;;;;;;4981064;28;20595;-61
2023/01/05 03:55:57;;;;;;;1.30;0.30;;;11.70;86.40;;;;;;4981802;28;20035;-59
2023/01/05 03:58:22;;;;;;;0.73;0.20;;;11.70;86.40;;;;;;4979301;28;20047;-60
2023/01/05 04:00:48;;;;;;;0.28;0.20;;;11.70;86.20;;;;;;4978405;28;20406;-62
2023/01/05 04:03:13;;;;;;;1.42;0.20;;;11.80;86.30;;;;;;4977925;28;20038;-61
2023/01/05 04:05:39;;;;;;;0.20;0.20;;;11.80;86.20;;;;;;4982258;28;20045;-60
2023/01/05 04:08:05;;;;;;;0.10;0.10;;;11.80;86.10;;;;;;4965931;28;20042;-61
2023/01/05 04:10:31;;;;;;;0.10;0.10;;;11.80;86.10;;;;;;4980145;28;20035;-61
2023/01/05 04:12:56;;;;;;;0.22;0.10;;;11.80;86.00;;;;;;4979861;28;20532;-62
2023/01/05 04:15:22;;;;;;;0.10;0.10;;;11.80;86.00;;;;;;4980984;28;20121;-63
2023/01/05 04:17:47;;;;;;;0.30;0.28;;;11.80;86.00;;;;;;4981346;28;20030;-62
2023/01/05 04:20:13;;;;;;;0.65;0.20;;;11.90;86.00;;;;;;4979444;28;20042;-62
2023/01/05 04:22:39;;;;;;;0.20;0.20;;;11.90;86.00;;;;;;4975918;28;20037;-62
2023/01/05 04:25:05;;;;;;;0.10;0.10;;;11.90;86.00;;;;;;4979002;28;20494;-62
2023/01/05 04:27:31;;;;;;;0.10;0.10;;;11.90;86.00;;;;;;4982646;28;20121;-62
2023/01/05 04:29:56;;;;;;;0.10;0.10;;;11.90;86.00;;;;;;4980383;28;20164;-61
2023/01/05 04:32:22;;;;;;;0.30;0.20;;;11.90;86.00;;;;;;4981852;28;20554;-62
2023/01/05 04:34:47;;;;;;;0.40;0.10;;;11.90;86.00;;;;;;4982004;28;20118;-62
2023/01/05 04:37:13;;;;;;;0.90;0.10;;;11.90;85.90;;;;;;4982068;28;20031;-62
2023/01/05 04:39:38;;;;;;;0.60;0.20;;;11.90;85.90;;;;;;4982696;28;20366;-61
2023/01/05 04:42:04;;;;;;;0.30;0.10;;;11.90;85.90;;;;;;4984020;28;20036;-62
2023/01/05 04:44:29;;;;;;;0.17;0.10;;;11.90;85.90;;;;;;4982929;28;20168;-60
2023/01/05 04:46:55;;;;;;;0.00;0.00;;;11.90;85.80;;;;;;4981183;28;20035;-61
2023/01/05 04:49:21;;;;;;;0.10;0.10;;;11.90;85.90;;;;;;4982121;28;20060;-62
2023/01/05 04:51:46;;;;;;;0.43;0.20;;;11.90;85.80;;;;;;4978304;28;20133;-61
2023/01/05 04:54:12;;;;;;;0.13;0.10;;;11.90;85.70;;;;;;4980997;28;20026;-61
2023/01/05 04:56:37;;;;;;;0.35;0.10;;;11.90;85.70;;;;;;4979914;28;20495;-61
2023/01/05 04:59:03;;;;;;;0.20;0.20;;;11.90;85.70;;;;;;4982430;28;20092;-61
2023/01/05 05:01:28;;;;;;;0.20;0.15;;;11.80;85.60;;;;;;4978810;28;20046;-62
2023/01/05 05:03:54;;;;;;;0.90;0.50;;;11.80;85.70;;;;;;4981966;28;20035;-61
2023/01/05 05:06:19;;;;;;;3.47;1.98;;;11.80;85.90;;;;;;4979887;28;20043;-60
2023/01/05 05:08:45;;;;;;;25.10;10.05;;;11.80;85.90;;;;;;4980113;28;20073;-60
2023/01/05 05:11:11;;;;;;;7.22;3.78;;;11.80;85.90;;;;;;4975408;28;20650;-61
2023/01/05 05:13:36;;;;;;;4.63;2.10;;;11.80;85.90;;;;;;4984113;28;20113;-60
2023/01/05 05:16:02;;;;;;;1.30;1.20;;;11.80;86.00;;;;;;4985422;28;20610;-61
2023/01/05 05:18:27;;;;;;;1.50;1.40;;;11.80;86.00;;;;;;4983374;28;20389;-59
2023/01/05 05:20:53;;;;;;;1.05;1.05;;;11.70;86.00;;;;;;4985558;28;20038;-60
2023/01/05 05:23:19;;;;;;;0.80;0.70;;;11.70;86.00;;;;;;4985215;28;20050;-59
2023/01/05 05:25:48;;;;;;;0.30;0.30;;;11.70;86.00;;;;;;4988452;28;20034;-59
2023/01/05 05:28:13;;;;;;;0.30;0.30;;;11.70;86.00;;;;;;4986298;28;20485;-60
2023/01/05 05:30:39;;;;;;;0.38;0.38;;;11.70;86.00;;;;;;4981483;28;20046;-59
2023/01/05 05:33:04;;;;;;;0.22;0.22;;;11.70;86.10;;;;;;4987448;28;20034;-58
2023/01/05 05:35:30;;;;;;;0.30;0.30;;;11.70;86.20;;;;;;4985276;28;20050;-58
2023/01/05 05:37:56;;;;;;;0.32;0.30;;;11.70;86.20;;;;;;4985503;28;20121;-59
2023/01/05 05:40:21;;;;;;;0.40;0.40;;;11.70;86.50;;;;;;4982410;28;20035;-62
2023/01/05 05:42:47;;;;;;;0.60;0.60;;;11.70;86.20;;;;;;4985487;28;20113;-60
2023/01/05 05:45:12;;;;;;;0.25;0.25;;;11.70;87.10;;;;;;4981987;28;20057;-59
2023/01/05 05:47:38;;;;;;;0.68;0.47;;;11.70;86.30;;;;;;4984770;28;20121;-60
2023/01/05 05:50:04;;;;;;;0.30;0.30;;;11.70;86.30;;;;;;4982120;28;20022;-61
2023/01/05 05:52:29;;;;;;;0.20;0.20;;;11.70;86.30;;;;;;4984499;28;20046;-61
2023/01/05 05:54:55;;;;;;;0.63;0.40;;;11.70;86.40;;;;;;4983093;28;20101;-59
2023/01/05 05:57:21;;;;;;;0.10;0.10;;;11.70;86.40;;;;;;4983027;28;20039;-60
2023/01/05 05:59:46;;;;;;;0.17;0.17;;;11.70;86.40;;;;;;4983156;28;20037;-59
2023/01/05 06:02:12;;;;;;;0.20;0.20;;;11.70;86.40;;;;;;4982627;28;20164;-59
2023/01/05 06:04:37;;;;;;;0.63;0.20;;;11.70;86.40;;;;;;4983605;28;20299;-59
2023/01/05 06:07:03;;;;;;;0.20;0.20;;;11.70;86.40;;;;;;4984226;28;20023;-62
2023/01/05 06:09:28;;;;;;;0.50;0.30;;;11.70;86.40;;;;;;4980956;28;21842;-62
2023/01/05 06:11:54;;;;;;;0.38;0.38;;;11.70;86.40;;;;;;4978168;28;20504;-61
2023/01/05 06:14:19;;;;;;;0.40;0.40;;;11.70;86.30;;;;;;4985310;28;20649;-63
2023/01/05 06:16:45;;;;;;;0.20;0.10;;;11.70;86.40;;;;;;4982227;28;20050;-62
2023/01/05 06:19:11;;;;;;;0.20;0.20;;;11.70;86.40;;;;;;4982444;28;20050;-61
2023/01/05 06:21:36;;;;;;;0.30;0.30;;;11.80;86.50;;;;;;4980258;28;20460;-62
2023/01/05 06:24:02;;;;;;;0.40;0.38;;;11.70;86.40;;;;;;4980969;28;20049;-62
2023/01/05 06:26:28;;;;;;;0.35;0.30;;;11.80;86.50;;;;;;4981048;28;20042;-62
2023/01/05 06:28:53;;;;;;;0.40;0.20;;;11.80;86.60;;;;;;4984444;28;20042;-62
2023/01/05 06:31:19;;;;;;;1.08;0.30;;;11.80;86.50;;;;;;4979991;28;20085;-60
2023/01/05 06:33:44;;;;;;;0.15;0.10;;;11.80;86.50;;;;;;4988570;28;20552;-61
2023/01/05 06:36:10;;;;;;;0.17;0.10;;;11.80;86.60;;;;;;4987222;28;20038;-61
2023/01/05 06:38:36;;;;;;;0.70;0.63;;;11.80;86.60;;;;;;4986280;28;20058;-59
2023/01/05 06:41:01;;;;;;;0.32;0.20;;;11.80;86.60;;;;;;4989206;28;20038;-59
2023/01/05 06:43:27;;;;;;;0.20;0.20;;;11.80;86.60;;;;;;4987822;28;20027;-61
2023/01/05 06:45:52;;;;;;;0.60;0.20;;;11.80;86.60;;;;;;4984623;28;20521;-59
2023/01/05 06:48:18;;;;;;;2.22;0.45;;;11.80;86.70;;;;;;4985334;28;20439;-59
2023/01/05 06:50:44;;;;;;;0.20;0.20;;;11.80;86.70;;;;;;4980519;28;20457;-60
2023/01/05 06:53:09;;;;;;;0.82;0.20;;;11.80;86.60;;;;;;4982759;28;20042;-58
2023/01/05 06:55:35;;;;;;;0.40;0.20;;;11.80;86.70;;;;;;4984518;28;20065;-59
2023/01/05 06:58:00;;;;;;;3.03;1.80;;;11.80;86.70;;;;;;4984333;28;20391;-61
2023/01/05 07:00:26;;;;;;;2.42;2.22;;;11.80;86.60;;;;;;4981153;28;20592;-61
2023/01/05 07:02:52;;;;;;;0.55;0.50;;;11.80;86.60;;;;;;4983052;28;20045;-59
2023/01/05 07:05:17;;;;;;;1.00;0.90;;;11.80;86.60;;;;;;4984418;28;20034;-61
2023/01/05 07:07:43;;;;;;;0.38;0.38;;;11.80;86.70;;;;;;4981078;28;20030;-61
2023/01/05 07:10:09;;;;;;;0.40;0.40;;;11.80;86.70;;;;;;4984031;28;20069;-61
2023/01/05 07:12:34;;;;;;;0.38;0.32;;;11.80;86.70;;;;;;4978026;28;20046;-59
2023/01/05 07:15:00;;;;;;;0.20;0.20;;;11.80;86.80;;;;;;4981876;28;20034;-59
2023/01/05 07:17:26;;;;;;;0.17;0.10;;;11.80;86.90;;;;;;4981270;28;20502;-61
2023/01/05 07:19:51;;;;;;;0.40;0.40;;;11.80;86.90;;;;;;4982893;28;20030;-62
2023/01/05 07:22:17;;;;;;;0.25;0.25;;;11.80;86.80;;;;;;4983486;28;20030;-61
2023/01/05 07:24:43;;;;;;;0.10;0.10;;;11.80;86.80;;;;;;4982019;28;20523;-62
2023/01/05 07:27:08;;;;;;;0.10;0.10;;;11.80;87.60;;;;;;4981809;28;20113;-62
2023/01/05 07:29:34;;;;;;;0.20;0.20;;;11.80;86.70;;;;;;4981808;28;20038;-60
2023/01/05 07:31:59;;;;;;;0.20;0.10;;;11.80;86.70;;;;;;4980439;28;20240;-60
2023/01/05 07:34:25;;;;;;;0.20;0.20;;;11.90;86.70;;;;;;4984482;28;20462;-60
2023/01/05 07:36:51;;;;;;;0.90;0.20;;;11.90;86.70;;;;;;4983080;28;20067;-60
2023/01/05 07:39:16;;;;;;;0.20;0.20;;;11.90;86.60;;;;;;4979350;28;20093;-59
2023/01/05 07:41:43;;;;;;;0.20;0.20;;;11.90;86.60;;;;;;4983519;28;20038;-60
2023/01/05 07:44:08;;;;;;;0.20;0.20;;;11.90;86.60;;;;;;4981431;28;20034;-60
2023/01/05 07:46:34;;;;;;;0.20;0.20;;;11.90;86.70;;;;;;4976347;28;20089;-62
2023/01/05 07:49:00;;;;;;;0.20;0.20;;;11.90;86.60;;;;;;4984996;28;20885;-62
2023/01/05 07:51:26;;;;;;;0.75;0.30;;;11.90;86.70;;;;;;4981297;28;20181;-59
2023/01/05 07:53:52;;;;;;;0.30;0.30;;;11.90;86.70;;;;;;4983873;28;20562;-60
2023/01/05 07:56:18;;;;;;;0.43;0.43;;;12.00;86.70;;;;;;4979834;28;20038;-61
2023/01/05 07:58:43;;;;;;;1.25;0.80;;;12.00;86.80;;;;;;4978865;28;20042;-57
2023/01/05 08:01:11;;;;;;;0.32;0.22;;;12.00;86.90;;;;;;4979361;28;20026;-60
2023/01/05 08:03:37;;;;;;;0.10;0.10;;;12.00;86.90;;;;;;4981055;28;20030;-61
2023/01/05 08:06:08;;;;;;;0.10;0.10;;;12.00;86.90;;;;;;4982177;28;20434;-60
2023/01/05 08:08:34;;;;;;;0.28;0.10;;;11.90;86.90;;;;;;4981355;28;20065;-60
2023/01/05 08:11:06;;;;;;;0.10;0.10;;;11.90;86.80;;;;;;4975407;28;20038;-61
2023/01/05 08:16:16;;;;;;;0.30;0.20;;;11.90;86.70;;;;;;4960847;28;20080;-63
2023/01/05 08:18:42;;;;;;;0.60;0.32;;;12.00;86.80;;;;;;4970133;28;20039;-61
2023/01/05 08:21:08;;;;;;;0.95;0.60;;;12.00;86.80;;;;;;4968076;28;20926;-61
2023/01/05 08:23:35;;;;;;;0.20;0.20;;;12.10;86.90;;;;;;4968253;28;20550;-61
2023/01/05 08:26:06;;;;;;;0.47;0.10;;;12.00;86.80;;;;;;4972424;28;20109;-62
2023/01/05 08:28:34;;;;;;;0.10;0.10;;;12.00;86.80;;;;;;4977936;28;20146;-61
2023/01/05 08:31:05;;;;;;;0.10;0.10;;;12.00;86.70;;;;;;4971421;28;20041;-62
2023/01/05 08:33:31;;;;;;;0.30;0.30;;;12.00;86.70;;;;;;4980623;28;20170;-63
2023/01/05 08:35:56;;;;;;;0.30;0.10;;;12.00;86.70;;;;;;4985798;28;20038;-58
2023/01/05 08:38:23;;;;;;;0.22;0.10;;;12.00;86.60;;;;;;4985872;28;20049;-61
2023/01/05 08:40:49;;;;;;;0.40;0.20;;;12.00;86.60;;;;;;4978664;28;20557;-63
2023/01/05 08:43:14;;;;;;;0.20;0.20;;;12.10;86.50;;;;;;4982958;28;20537;-62
2023/01/05 08:45:41;;;;;;;0.10;0.10;;;12.10;86.40;;;;;;4976913;28;20085;-60
2023/01/05 08:48:08;;;;;;;0.43;0.20;;;12.10;86.30;;;;;;4966728;28;20050;-61
2023/01/05 08:50:33;;;;;;;0.38;0.10;;;12.10;86.10;;;;;;4970260;28;20846;-62
2023/01/05 08:52:59;;;;;;;0.65;0.20;;;12.10;85.90;;;;;;4970361;28;20046;-61
2023/01/05 08:55:24;;;;;;;0.10;0.10;;;12.10;85.80;;;;;;4970407;28;20045;-61
2023/01/05 08:57:50;;;;;;;0.30;0.10;;;12.10;85.80;;;;;;4970838;28;20137;-62
2023/01/05 09:00:16;;;;;;;0.32;0.20;;;12.10;85.70;;;;;;4974863;28;20414;-60
2023/01/05 09:02:43;;;;;;;0.30;0.20;;;12.10;85.70;;;;;;4971330;28;20402;-61
2023/01/05 09:05:09;;;;;;;0.30;0.30;;;12.10;85.50;;;;;;4976344;28;20204;-62
2023/01/05 09:07:34;;;;;;;0.52;0.40;;;12.20;85.60;;;;;;4979321;28;20038;-62
2023/01/05 09:10:00;;;;;;;0.85;0.38;;;12.10;85.70;;;;;;4960458;28;20513;-60
2023/01/05 09:12:25;;;;;;;0.73;0.73;;;12.20;86.00;;;;;;4965197;28;20467;-60
2023/01/05 09:14:53;;;;;;;0.50;0.50;;;12.20;86.00;;;;;;4953419;28;20058;-62
2023/01/05 09:17:18;;;;;;;1.10;0.52;;;12.20;86.10;;;;;;4968348;28;20118;-60
2023/01/05 09:19:44;;;;;;;0.85;0.85;;;12.10;86.20;;;;;;4977994;28;20133;-60
2023/01/05 09:22:10;;;;;;;0.77;0.75;;;12.10;86.40;;;;;;4973044;28;20057;-59
2023/01/05 09:24:35;;;;;;;1.40;1.30;;;12.10;86.60;;;;;;4971917;28;20034;-61
2023/01/05 09:27:02;;;;;;;1.50;1.40;;;12.10;86.70;;;;;;4976605;28;20066;-60
2023/01/05 09:29:28;;;;;;;0.60;0.60;;;12.10;86.80;;;;;;4978194;28;20387;-61
2023/01/05 09:31:54;;;;;;;1.15;1.00;;;12.10;86.90;;;;;;4975953;28;20089;-61
2023/01/05 09:34:20;;;;;;;0.50;0.40;;;12.10;87.10;;;;;;4972304;28;20407;-59
2023/01/05 09:36:46;;;;;;;0.70;0.70;;;12.10;87.30;;;;;;4975347;28;20042;-61
2023/01/05 09:39:11;;;;;;;2.00;1.90;;;12.10;87.40;;;;;;4974959;28;20046;-60
2023/01/05 09:41:49;;;;;;;0.70;0.70;;;12.00;87.40;;;;;;4974907;28;20067;-59
2023/01/05 09:44:29;;;;;;;0.40;0.40;;;12.10;88.00;;;;;;4974966;28;20497;-62
2023/01/05 09:47:00;;;;;;;0.65;0.50;;;12.10;87.90;;;;;;4974438;28;20041;-62
2023/01/05 09:49:27;;;;;;;0.90;0.80;;;12.10;88.10;;;;;;4976847;28;20039;-61
2023/01/05 09:52:05;;;;;;;0.60;0.60;;;12.00;88.90;;;;;;4974145;28;20093;-62
2023/01/05 09:54:32;;;;;;;0.40;0.40;;;12.10;88.60;;;;;;4977305;28;20037;-61
2023/01/05 09:56:58;;;;;;;1.70;0.60;;;12.00;88.50;;;;;;4974105;28;20038;-60
2023/01/05 09:59:37;;;;;;;0.60;0.60;;;12.00;88.60;;;;;;4973547;28;20042;-61
2023/01/05 10:02:25;;;;;;;0.70;0.70;;;12.00;89.30;;;;;;4975222;28;20177;-60
2023/01/05 10:04:51;;;;;;;0.38;0.30;;;12.00;89.10;;;;;;4976597;28;20038;-61
2023/01/05 10:07:30;;;;;;;0.52;0.52;;;12.00;89.10;;;;;;4972539;28;20046;-58
2023/01/05 10:09:59;;;;;;;1.58;1.48;;;12.00;89.60;;;;;;4978873;28;20209;-60
2023/01/05 10:15:29;;;;;;;1.20;1.00;;;12.00;89.50;;;;;;4981445;28;20097;-62
2023/01/05 10:17:54;;;;;;;1.08;0.90;;;12.10;89.20;;;;;;4983977;28;20047;-63
2023/01/05 10:20:43;;;;;;;2.30;2.20;;;12.10;89.00;;;;;;4975119;28;20039;-62
2023/01/05 10:23:17;;;;;;;0.70;0.70;;;12.10;89.40;;;;;;4932568;28;20030;-62
2023/01/05 10:26:04;;;;;;;2.17;0.68;;;12.10;88.90;;;;;;4974350;28;20026;-64
2023/01/05 10:28:46;;;;;;;0.55;0.55;;;12.20;89.00;;;;;;4976082;28;20033;-63
2023/01/05 10:31:22;;;;;;;0.60;0.52;;;12.20;89.00;;;;;;4972258;28;20038;-62
2023/01/05 10:33:53;;;;;;;0.32;0.30;;;12.20;89.50;;;;;;4977818;28;20068;-60
2023/01/05 10:36:43;;;;;;;0.60;0.40;;;12.20;88.80;;;;;;4985893;28;20038;-60
2023/01/05 10:39:17;;;;;;;0.50;0.50;;;12.20;88.90;;;;;;4979796;28;20433;-61
2023/01/05 10:41:59;;;;;;;0.65;0.40;;;12.20;89.60;;;;;;4984087;28;20732;-63
2023/01/05 10:44:36;;;;;;;0.32;0.32;;;12.20;89.00;;;;;;4984199;28;20061;-63
2023/01/05 10:47:01;;;;;;;0.47;0.40;;;12.20;88.80;;;;;;4982743;28;20045;-61
2023/01/05 10:49:30;;;;;;;0.43;0.38;;;12.20;89.10;;;;;;4981378;28;20042;-59
2023/01/05 10:51:58;;;;;;;0.40;0.40;;;12.20;89.00;;;;;;4986207;28;20069;-61
2023/01/05 10:54:38;;;;;;;0.40;0.40;;;12.30;89.00;;;;;;4986255;28;20101;-60
2023/01/05 10:57:29;;;;;;;0.43;0.30;;;12.30;89.20;;;;;;4985914;28;20038;-62
2023/01/05 11:00:00;;;;;;;0.55;0.30;;;12.40;89.20;;;;;;4983786;28;20069;-61
2023/01/05 11:02:28;;;;;;;0.20;0.20;;;12.40;88.90;;;;;;4983430;28;20031;-62
2023/01/05 11:05:06;;;;;;;1.70;0.20;;;12.40;88.90;;;;;;4983065;28;20045;-62
2023/01/05 11:07:44;;;;;;;0.20;0.20;;;12.50;89.00;;;;;;4981175;28;20549;-62
2023/01/05 11:10:30;;;;;;;0.47;0.30;;;12.50;89.00;;;;;;4980911;28;20038;-61
2023/01/05 11:13:06;;;;;;;0.57;0.40;;;12.50;89.00;;;;;;4987743;28;20031;-62
2023/01/05 11:15:39;;;;;;;0.30;0.30;;;12.60;88.80;;;;;;4985010;28;20184;-62
2023/01/05 11:18:06;;;;;;;0.32;0.30;;;12.60;88.60;;;;;;4985406;28;20506;-62
2023/01/05 11:20:32;;;;;;;0.20;0.20;;;12.60;88.40;;;;;;4984841;28;20544;-62
2023/01/05 11:22:57;;;;;;;0.10;0.10;;;12.60;88.30;;;;;;4984981;28;20034;-59
2023/01/05 11:25:28;;;;;;;0.20;0.10;;;12.70;88.30;;;;;;4987656;28;20035;-62
2023/01/05 11:28:10;;;;;;;0.20;0.10;;;12.70;88.20;;;;;;4983553;28;20057;-60
2023/01/05 11:30:40;;;;;;;1.15;0.20;;;12.70;88.10;;;;;;4980680;28;20038;-61
2023/01/05 11:33:21;;;;;;;0.20;0.10;;;12.70;87.90;;;;;;4985557;28;20410;-62
2023/01/05 11:35:46;;;;;;;0.25;0.20;;;12.70;88.00;;;;;;4986009;28;20038;-62
2023/01/05 11:38:25;;;;;;;0.25;0.20;;;12.70;87.90;;;;;;4986803;28;20042;-61
2023/01/05 11:40:51;;;;;;;0.20;0.20;;;12.70;87.80;;;;;;4984200;28;20100;-61
2023/01/05 11:43:20;;;;;;;0.70;0.50;;;12.70;87.70;;;;;;4984397;28;20034;-61
2023/01/05 11:45:55;;;;;;;0.35;0.30;;;12.70;87.70;;;;;;4983810;28;20030;-62
2023/01/05 11:48:25;;;;;;;0.38;0.30;;;12.70;87.70;;;;;;4982743;28;20053;-61
2023/01/05 11:50:56;;;;;;;0.40;0.30;;;12.70;87.80;;;;;;4985608;28;20541;-59
2023/01/05 11:53:38;;;;;;;0.30;0.20;;;12.80;88.00;;;;;;4984423;28;20042;-62
2023/01/05 11:56:19;;;;;;;0.20;0.20;;;12.80;88.00;;;;;;4985749;28;20031;-59
2023/01/05 11:58:56;;;;;;;0.65;0.38;;;12.80;87.80;;;;;;4983919;28;20042;-62
2023/01/05 12:01:53;;;;;;;0.20;0.20;;;12.80;87.50;;;;;;4983642;28;20088;-60
2023/01/05 12:04:27;;;;;;;0.30;0.20;;;12.90;87.50;;;;;;4985428;28;20062;-60
2023/01/05 12:06:56;;;;;;;1.05;0.40;;;12.90;87.60;;;;;;4986613;28;20031;-60
2023/01/05 12:09:34;;;;;;;0.30;0.30;;;12.90;87.50;;;;;;4987674;28;20042;-60
2023/01/05 12:12:25;;;;;;;0.30;0.30;;;12.90;87.30;;;;;;4986694;28;20046;-60
2023/01/05 12:15:10;;;;;;;0.80;0.28;;;13.00;87.10;;;;;;4978904;28;20061;-62
2023/01/05 12:17:46;;;;;;;0.50;0.30;;;13.00;86.80;;;;;;4987185;28;20038;-61
2023/01/05 12:20:32;;;;;;;0.20;0.20;;;13.00;86.70;;;;;;4980540;28;20333;-63
2023/01/05 12:23:02;;;;;;;0.90;0.30;;;13.00;86.60;;;;;;4983869;28;20045;-62
2023/01/05 12:25:49;;;;;;;0.25;0.20;;;13.00;86.40;;;;;;4985392;28;20109;-61
2023/01/05 12:28:40;;;;;;;0.40;0.40;;;13.10;85.80;;;;;;4983412;28;20936;-62
2023/01/05 12:31:22;;;;;;;1.00;0.38;;;13.00;85.20;;;;;;4982507;28;20050;-61
2023/01/05 12:34:25;;;;;;;1.10;0.60;;;13.10;84.30;;;;;;4981784;28;20034;-62
2023/01/05 12:37:06;;;;;;;0.95;0.50;;;13.10;82.40;;;;;;4971573;28;20108;-62
2023/01/05 12:39:51;;;;;;;2.33;0.82;;;13.10;81.80;;;;;;4984697;28;20061;-62
2023/01/05 12:42:44;;;;;;;2.13;0.50;;;13.10;80.40;;;;;;4984075;28;20050;-59
2023/01/05 12:45:24;;;;;;;1.90;0.60;;;13.10;79.40;;;;;;4981568;28;20500;-61
2023/01/05 12:48:20;;;;;;;3.40;0.70;;;13.10;79.30;;;;;;4982984;28;20391;-62
2023/01/05 12:51:21;;;;;;;2.17;0.57;;;13.00;77.90;;;;;;4979954;28;20066;-62
2023/01/05 12:54:08;;;;;;;2.22;0.50;;;13.00;78.40;;;;;;4952558;28;20077;-62
2023/01/05 12:56:49;;;;;;;3.70;0.70;;;13.00;78.30;;;;;;4981648;28;20528;-59
2023/01/05 12:59:36;;;;;;;2.15;0.40;;;13.00;78.70;;;;;;4985210;28;20049;-61
2023/01/05 13:02:19;;;;;;;3.22;0.77;;;13.00;77.50;;;;;;4984760;28;20093;-62
2023/01/05 13:05:03;;;;;;;3.63;1.08;;;13.00;77.20;;;;;;4981973;28;20034;-61
2023/01/05 13:07:41;;;;;;;2.35;0.70;;;13.00;77.20;;;;;;4982365;28;20030;-60
2023/01/05 13:10:36;;;;;;;3.17;1.00;;;13.00;77.10;;;;;;4975160;28;20061;-62
2023/01/05 13:13:12;;;;;;;2.13;1.00;;;13.00;76.50;;;;;;4979853;28;20045;-61
2023/01/05 13:15:53;;;;;;;4.07;0.90;;;13.00;76.90;;;;;;4980032;28;20533;-61
2023/01/05 13:18:20;;;;;;;2.70;0.77;;;13.00;76.20;;;;;;4964991;28;20406;-60
2023/01/05 13:21:02;;;;;;;6.30;0.98;;;13.00;77.00;;;;;;4971652;28;20035;-59
2023/01/05 13:23:31;;;;;;;1.80;0.50;;;13.00;75.10;;;;;;4982146;28;20552;-60
2023/01/05 13:26:01;;;;;;;1.42;0.50;;;13.00;76.30;;;;;;4980987;28;20046;-61
2023/01/05 13:28:27;;;;;;;3.88;1.00;;;13.00;76.30;;;;;;4981436;28;20039;-61
2023/01/05 13:31:29;;;;;;;7.13;0.70;;;13.00;76.80;;;;;;4982701;28;20050;-59
2023/01/05 13:34:22;;;;;;;1.83;0.50;;;13.00;75.30;;;;;;4981575;28;20038;-58
2023/01/05 13:36:54;;;;;;;1.58;0.50;;;13.00;75.60;;;;;;4973018;28;20122;-61
2023/01/05 13:39:38;;;;;;;3.03;0.73;;;13.00;76.30;;;;;;4982606;28;20050;-61
2023/01/05 13:42:28;;;;;;;2.42;0.70;;;13.00;76.10;;;;;;4990403;28;20598;-61
2023/01/05 13:45:11;;;;;;;1.05;0.45;;;13.00;75.60;;;;;;4987045;28;20564;-61